createdAt,value
2019-05-10T00:00:38.306Z,99462.00
2019-05-10T00:03:27.391Z,99462.00
2019-05-10T00:06:15.299Z,99464.00
2019-05-10T00:08:47.746Z,99468.00
2019-05-10T00:11:40.917Z,99464.00
2019-05-10T00:14:40.505Z,99474.00
2019-05-10T00:17:15.680Z,99474.00
2019-05-10T00:20:19.501Z,99469.00
2019-05-10T00:22:49.892Z,99476.00
2019-05-10T00:25:20.298Z,99479.00
2019-05-10T00:28:10.026Z,99469.00
2019-05-10T00:30:40.399Z,99476.00
2019-05-10T00:33:10.935Z,99476.00
2019-05-10T00:35:41.557Z,99473.00
2019-05-10T00:38:12.582Z,99472.00
2019-05-10T00:40:43.209Z,99482.00
2019-05-10T00:43:13.566Z,99482.00
2019-05-10T00:45:43.952Z,99480.00
2019-05-10T00:48:14.847Z,99488.00
2019-05-10T00:50:45.948Z,99488.00
2019-05-10T00:53:16.333Z,99485.00
2019-05-10T00:55:47.005Z,99493.00
2019-05-10T00:58:17.408Z,99491.00
2019-05-10T01:00:47.738Z,99499.00
2019-05-10T01:03:18.475Z,99501.00
2019-05-10T01:05:49.204Z,99507.00
2019-05-10T01:08:19.570Z,99514.00
2019-05-10T01:10:49.893Z,99501.00
2019-05-10T01:13:20.547Z,99503.00
2019-05-10T01:15:50.966Z,99512.00
2019-05-10T01:18:21.696Z,99504.00
2019-05-10T01:20:59.085Z,99509.00
2019-05-10T01:23:29.434Z,99513.00
2019-05-10T01:25:59.888Z,99510.00
2019-05-10T01:28:30.814Z,99506.00
2019-05-10T01:31:01.454Z,99506.00
2019-05-10T01:33:32.220Z,99515.00
2019-05-10T01:36:02.617Z,99514.00
2019-05-10T01:38:34.288Z,99512.00
2019-05-10T01:41:04.725Z,99514.00
2019-05-10T01:43:35.112Z,99516.00
2019-05-10T01:46:05.472Z,99513.00
2019-05-10T01:48:35.854Z,99519.00
2019-05-10T01:51:06.440Z,99520.00
2019-05-10T01:53:38.070Z,99516.00
2019-05-10T01:56:08.866Z,99530.00
2019-05-10T01:58:39.278Z,99520.00
2019-05-10T02:01:09.750Z,99528.00
2019-05-10T02:03:40.117Z,99529.00
2019-05-10T02:06:10.751Z,99524.00
2019-05-10T02:08:41.081Z,99524.00
2019-05-10T02:11:11.501Z,99526.00
2019-05-10T02:13:41.855Z,99529.00
2019-05-10T02:16:12.211Z,99533.00
2019-05-10T02:18:43.034Z,99535.00
2019-05-10T02:21:13.644Z,99542.00
2019-05-10T02:23:44.301Z,99532.00
2019-05-10T02:26:15.500Z,99546.00
2019-05-10T02:28:45.973Z,99544.00
2019-05-10T02:31:21.274Z,99533.00
2019-05-10T02:33:48.437Z,99542.00
2019-05-10T02:36:18.777Z,99548.00
2019-05-10T02:38:49.476Z,99538.00
2019-05-10T02:41:19.770Z,99548.00
2019-05-10T02:43:50.184Z,99546.00
2019-05-10T02:46:20.492Z,99550.00
2019-05-10T02:48:50.820Z,99551.00
2019-05-10T02:51:21.266Z,99557.00
2019-05-10T02:53:52.081Z,99556.00
2019-05-10T02:56:30.603Z,99563.00
2019-05-10T02:58:58.465Z,99556.00
2019-05-10T03:01:32.084Z,99564.00
2019-05-10T03:04:03.617Z,99556.00
2019-05-10T03:06:37.642Z,99562.00
2019-05-10T03:09:09.516Z,99569.00
2019-05-10T03:11:51.027Z,99574.00
2019-05-10T03:14:23.034Z,99573.00
2019-05-10T03:16:53.568Z,99576.00
2019-05-10T03:19:24.233Z,99569.00
2019-05-10T03:22:06.310Z,99582.00
2019-05-10T03:24:36.726Z,99576.00
2019-05-10T03:27:07.050Z,99584.00
2019-05-10T03:29:37.955Z,99586.00
2019-05-10T03:32:08.585Z,99584.00
2019-05-10T03:34:38.942Z,99585.00
2019-05-10T03:37:09.403Z,99587.00
2019-05-10T03:39:39.738Z,99589.00
2019-05-10T03:42:10.066Z,99600.00
2019-05-10T03:44:40.750Z,99586.00
2019-05-10T03:47:11.476Z,99594.00
2019-05-10T03:49:42.137Z,99591.00
2019-05-10T03:52:12.714Z,99587.00
2019-05-10T03:54:43.095Z,99595.00
2019-05-10T03:57:14.636Z,99594.00
2019-05-10T03:59:45.756Z,99594.00
2019-05-10T04:02:17.187Z,99598.00
2019-05-10T04:05:12.954Z,99590.00
2019-05-10T04:07:44.302Z,99607.00
2019-05-10T04:10:15.121Z,99593.00
2019-05-10T04:12:46.570Z,99601.00
2019-05-10T04:15:17.416Z,99601.00
2019-05-10T04:17:50.432Z,99605.00
2019-05-10T04:20:19.869Z,99610.00
2019-05-10T04:22:50.235Z,99609.00
2019-05-10T04:25:21.185Z,99601.00
2019-05-10T04:27:51.940Z,99616.00
2019-05-10T04:30:23.652Z,99615.00
2019-05-10T04:32:54.898Z,99622.00
2019-05-10T04:35:25.523Z,99625.00
2019-05-10T04:37:57.452Z,99626.00
2019-05-10T04:40:28.091Z,99636.00
2019-05-10T04:42:58.491Z,99635.00
2019-05-10T04:45:29.223Z,99630.00
2019-05-10T04:47:59.593Z,99631.00
2019-05-10T04:50:30.328Z,99637.00
2019-05-10T04:53:00.657Z,99639.00
2019-05-10T04:55:30.980Z,99635.00
2019-05-10T04:58:02.374Z,99631.00
2019-05-10T05:00:33.003Z,99629.00
2019-05-10T05:03:03.635Z,99630.00
2019-05-10T05:05:34.244Z,99631.00
2019-05-10T05:08:06.354Z,99624.00
2019-05-10T05:10:42.369Z,99643.00
2019-05-10T05:13:12.747Z,99642.00
2019-05-10T05:15:43.415Z,99639.00
2019-05-10T05:18:13.867Z,99647.00
2019-05-10T05:20:44.221Z,99646.00
2019-05-10T05:23:14.638Z,99644.00
2019-05-10T05:25:52.187Z,99647.00
2019-05-10T05:28:23.765Z,99649.00
2019-05-10T05:30:54.788Z,99655.00
2019-05-10T05:33:25.693Z,99661.00
2019-05-10T05:35:56.065Z,99662.00
2019-05-10T05:38:26.546Z,99674.00
2019-05-10T05:41:16.487Z,99675.00
2019-05-10T05:43:48.227Z,99670.00
2019-05-10T05:46:19.069Z,99673.00
2019-05-10T05:48:51.411Z,99671.00
2019-05-10T05:51:21.880Z,99676.00
2019-05-10T05:53:53.763Z,99689.00
2019-05-10T05:56:24.466Z,99683.00
2019-05-10T05:58:55.001Z,99693.00
2019-05-10T06:01:29.593Z,99699.00
2019-05-10T06:04:00.062Z,99702.00
2019-05-10T06:06:31.770Z,99694.00
2019-05-10T06:09:02.752Z,99709.00
2019-05-10T06:11:35.835Z,99707.00
2019-05-10T06:14:10.814Z,99707.00
2019-05-10T06:16:37.536Z,99724.00
2019-05-10T06:19:09.767Z,99732.00
2019-05-10T06:21:40.163Z,99724.00
2019-05-10T06:24:13.513Z,99727.00
2019-05-10T06:26:43.034Z,99729.00
2019-05-10T06:29:17.219Z,99737.00
2019-05-10T06:31:48.641Z,99740.00
2019-05-10T06:34:19.342Z,99749.00
2019-05-10T06:36:49.693Z,99756.00
2019-05-10T06:39:20.412Z,99765.00
2019-05-10T06:41:56.003Z,99768.00
2019-05-10T06:44:24.869Z,99767.00
2019-05-10T06:46:56.286Z,99773.00
2019-05-10T06:49:26.637Z,99781.00
2019-05-10T06:51:57.273Z,99787.00
2019-05-10T06:54:28.000Z,99788.00
2019-05-10T06:56:59.113Z,99786.00
2019-05-10T06:59:29.570Z,99797.00
2019-05-10T07:02:00.414Z,99799.00
2019-05-10T07:04:36.083Z,99797.00
2019-05-10T07:07:03.099Z,99804.00
2019-05-10T07:10:00.448Z,99811.00
2019-05-10T07:12:09.285Z,99819.00
2019-05-10T07:14:45.627Z,99827.00
2019-05-10T07:17:10.423Z,99832.00
2019-05-10T07:19:53.181Z,99829.00
2019-05-10T07:22:13.332Z,99827.00
2019-05-10T07:24:44.021Z,99841.00
2019-05-10T07:27:14.484Z,99835.00
2019-05-10T07:29:46.350Z,99838.00
2019-05-10T07:32:22.297Z,99843.00
2019-05-10T07:34:58.321Z,99852.00
2019-05-10T07:37:21.962Z,99854.00
2019-05-10T07:39:53.944Z,99859.00
2019-05-10T07:42:24.559Z,99860.00
2019-05-10T07:44:57.035Z,99868.00
2019-05-10T07:47:30.485Z,99864.00
2019-05-10T07:50:03.834Z,99861.00
2019-05-10T07:52:43.526Z,99879.00
2019-05-10T07:55:18.545Z,99885.00
2019-05-10T07:57:50.077Z,99878.00
2019-05-10T08:00:21.090Z,99895.00
2019-05-10T08:03:03.161Z,99892.00
2019-05-10T08:05:24.745Z,99902.00
2019-05-10T08:07:55.159Z,99909.00
2019-05-10T08:10:28.741Z,99899.00
2019-05-10T08:13:01.367Z,99907.00
2019-05-10T08:15:34.835Z,99914.00
2019-05-10T08:18:03.584Z,99911.00
2019-05-10T08:20:46.515Z,99928.00
2019-05-10T08:23:06.573Z,99933.00
2019-05-10T08:25:43.814Z,99929.00
2019-05-10T08:28:09.300Z,99936.00
2019-05-10T08:30:59.191Z,99948.00
2019-05-10T08:33:29.618Z,99948.00
2019-05-10T08:36:05.026Z,99942.00
2019-05-10T08:38:39.825Z,99949.00
2019-05-10T08:41:08.143Z,99954.00
2019-05-10T08:43:40.776Z,99960.00
2019-05-10T08:46:29.189Z,99952.00
2019-05-10T08:48:53.806Z,99966.00
2019-05-10T08:51:24.780Z,99968.00
2019-05-10T08:53:58.166Z,99976.00
2019-05-10T08:56:28.639Z,99983.00
2019-05-10T08:59:00.202Z,99992.00
2019-05-10T09:01:38.863Z,99998.00
2019-05-10T09:04:06.796Z,100001.00
2019-05-10T09:06:36.262Z,100015.00
2019-05-10T09:09:08.623Z,100026.00
2019-05-10T09:11:43.951Z,100024.00
2019-05-10T09:14:19.747Z,100033.00
2019-05-10T09:16:53.992Z,100036.00
2019-05-10T09:19:18.840Z,100026.00
2019-05-10T09:21:52.242Z,100027.00
2019-05-10T09:24:22.851Z,100038.00
2019-05-10T09:26:57.020Z,100034.00
2019-05-10T09:29:27.393Z,100038.00
2019-05-10T09:32:04.040Z,100041.00
2019-05-10T09:34:32.634Z,100047.00
2019-05-10T09:37:07.970Z,100054.00
2019-05-10T09:39:35.881Z,100047.00
2019-05-10T09:42:10.148Z,100054.00
2019-05-10T09:44:38.523Z,100050.00
2019-05-10T09:47:08.970Z,100056.00
2019-05-10T09:49:47.295Z,100056.00
2019-05-10T09:52:31.759Z,100053.00
2019-05-10T09:55:04.121Z,100063.00
2019-05-10T09:57:35.016Z,100067.00
2019-05-10T10:00:07.378Z,100059.00
2019-05-10T10:02:40.550Z,100063.00
2019-05-10T10:05:10.695Z,100076.00
2019-05-10T10:07:41.085Z,100077.00
2019-05-10T10:10:21.212Z,100078.00
2019-05-10T10:12:44.550Z,100095.00
2019-05-10T10:15:32.177Z,100091.00
2019-05-10T10:17:53.260Z,100082.00
2019-05-10T10:20:29.812Z,100087.00
2019-05-10T10:22:57.854Z,100083.00
2019-05-10T10:25:35.229Z,100081.00
2019-05-10T10:28:10.420Z,100080.00
2019-05-10T10:30:40.820Z,100093.00
2019-05-10T10:33:17.464Z,100100.00
2019-05-10T10:35:43.945Z,100104.00
2019-05-10T10:38:14.348Z,100100.00
2019-05-10T10:40:46.039Z,100101.00
2019-05-10T10:43:17.965Z,100108.00
2019-05-10T10:45:48.600Z,100102.00
2019-05-10T10:48:18.952Z,100106.00
2019-05-10T10:50:54.079Z,100116.00
2019-05-10T10:53:21.743Z,100125.00
2019-05-10T10:55:54.411Z,100123.00
2019-05-10T10:58:27.469Z,100125.00
2019-05-10T11:00:57.491Z,100127.00
2019-05-10T11:03:30.147Z,100133.00
2019-05-10T11:06:00.301Z,100140.00
2019-05-10T11:08:33.251Z,100145.00
2019-05-10T11:11:03.809Z,100136.00
2019-05-10T11:13:43.904Z,100147.00
2019-05-10T11:16:14.114Z,100140.00
2019-05-10T11:18:41.830Z,100139.00
2019-05-10T11:21:12.150Z,100144.00
2019-05-10T11:23:42.728Z,100144.00
2019-05-10T11:26:13.114Z,100143.00
2019-05-10T11:28:51.418Z,100139.00
2019-05-10T11:31:22.224Z,100152.00
2019-05-10T11:33:58.512Z,100155.00
2019-05-10T11:36:28.175Z,100159.00
2019-05-10T11:38:58.894Z,100158.00
2019-05-10T11:41:31.363Z,100158.00
2019-05-10T11:44:07.892Z,100157.00
2019-05-10T11:46:33.700Z,100165.00
2019-05-10T11:49:04.084Z,100164.00
2019-05-10T11:51:35.096Z,100159.00
2019-05-10T11:54:05.487Z,100152.00
2019-05-10T11:56:36.256Z,100162.00
2019-05-10T11:59:06.677Z,100169.00
2019-05-10T12:01:41.665Z,100167.00
2019-05-10T12:04:13.012Z,100153.00
2019-05-10T12:06:49.878Z,100161.00
2019-05-10T12:09:14.055Z,100151.00
2019-05-10T12:11:51.843Z,100156.00
2019-05-10T12:14:18.361Z,100156.00
2019-05-10T12:16:56.939Z,100152.00
2019-05-10T12:19:36.635Z,100152.00
2019-05-10T12:22:03.566Z,100163.00
2019-05-10T12:26:50.471Z,100162.00
2019-05-10T12:27:19.009Z,100159.00
2019-05-10T12:29:37.013Z,100161.00
2019-05-10T12:32:07.471Z,100156.00
2019-05-10T12:34:40.867Z,100160.00
2019-05-10T12:37:11.382Z,100159.00
2019-05-10T12:39:41.787Z,100169.00
2019-05-10T12:42:14.344Z,100164.00
2019-05-10T12:44:48.038Z,100166.00
2019-05-10T12:47:18.472Z,100166.00
2019-05-10T12:49:53.833Z,100175.00
2019-05-10T12:52:28.543Z,100175.00
2019-05-10T12:54:59.514Z,100179.00
2019-05-10T12:57:31.929Z,100186.00
2019-05-10T13:00:06.766Z,100186.00
2019-05-10T13:02:34.746Z,100183.00
2019-05-10T13:05:05.228Z,100183.00
2019-05-10T13:07:36.992Z,100177.00
2019-05-10T13:10:10.057Z,100189.00
2019-05-10T13:12:44.170Z,100189.00
2019-05-10T13:15:12.584Z,100195.00
2019-05-10T13:17:50.226Z,100204.00
2019-05-10T13:20:16.623Z,100196.00
2019-05-10T13:22:47.224Z,100198.00
2019-05-10T13:25:18.130Z,100208.00
2019-05-10T13:27:48.882Z,100216.00
2019-05-10T13:30:27.438Z,100219.00
2019-05-10T13:32:58.544Z,100220.00
2019-05-10T13:35:26.789Z,100224.00
2019-05-10T13:38:04.120Z,100226.00
2019-05-10T13:40:30.330Z,100230.00
2019-05-10T13:43:01.166Z,100230.00
2019-05-10T13:48:04.367Z,100233.00
2019-05-10T13:50:40.719Z,100227.00
2019-05-10T13:53:19.940Z,100228.00
2019-05-10T13:55:43.645Z,100234.00
2019-05-10T13:58:14.009Z,100226.00
2019-05-10T14:00:45.851Z,100236.00
2019-05-10T14:03:16.714Z,100243.00
2019-05-10T14:05:47.467Z,100242.00
2019-05-10T14:08:17.977Z,100247.00
2019-05-10T14:10:49.669Z,100247.00
2019-05-10T14:13:25.476Z,100251.00
2019-05-10T14:15:56.514Z,100244.00
2019-05-10T14:18:27.610Z,100249.00
2019-05-10T14:21:00.083Z,100243.00
2019-05-10T14:23:35.143Z,100246.00
2019-05-10T14:26:03.190Z,100242.00
2019-05-10T14:28:34.689Z,100249.00
2019-05-10T14:31:05.173Z,100252.00
2019-05-10T14:33:38.105Z,100243.00
2019-05-10T14:36:08.487Z,100254.00
2019-05-10T14:38:39.097Z,100249.00
2019-05-10T14:41:13.399Z,100261.00
2019-05-10T14:43:44.274Z,100255.00
2019-05-10T14:46:15.542Z,100261.00
2019-05-10T14:48:45.952Z,100264.00
2019-05-10T14:51:16.459Z,100263.00
2019-05-10T14:53:47.231Z,100259.00
2019-05-10T14:56:17.760Z,100268.00
2019-05-10T14:58:48.166Z,100268.00
2019-05-10T15:01:19.139Z,100274.00
2019-05-10T15:03:49.815Z,100268.00
2019-05-10T15:06:21.140Z,100272.00
2019-05-10T15:08:51.509Z,100282.00
2019-05-10T15:11:26.378Z,100273.00
2019-05-10T15:13:54.544Z,100276.00
2019-05-10T15:16:27.303Z,100276.00
2019-05-10T15:18:56.959Z,100287.00
2019-05-10T15:21:27.499Z,100286.00
2019-05-10T15:24:00.926Z,100289.00
2019-05-10T15:26:37.496Z,100286.00
2019-05-10T15:29:05.633Z,100291.00
2019-05-10T15:31:36.058Z,100282.00
2019-05-10T15:34:07.636Z,100282.00
2019-05-10T15:36:38.101Z,100277.00
2019-05-10T15:39:09.582Z,100277.00
2019-05-10T15:41:40.199Z,100281.00
2019-05-10T15:44:12.979Z,100289.00
2019-05-10T15:46:43.713Z,100287.00
2019-05-10T15:51:49.077Z,100291.00
2019-05-10T15:54:21.961Z,100284.00
2019-05-10T15:56:55.638Z,100281.00
2019-05-10T15:59:23.466Z,100286.00
2019-05-10T15:59:26.397Z,100281.00
2019-05-10T16:01:56.934Z,100281.00
2019-05-10T16:04:29.199Z,100285.00
2019-05-10T16:06:59.565Z,100273.00
2019-05-10T16:09:30.053Z,100288.00
2019-05-10T16:12:02.370Z,100287.00
2019-05-10T16:14:39.047Z,100289.00
2019-05-10T16:17:10.219Z,100284.00
2019-05-10T16:19:40.022Z,100287.00
2019-05-10T16:22:11.881Z,100282.00
2019-05-10T16:24:42.413Z,100277.00
2019-05-10T16:27:34.062Z,100293.00
2019-05-10T16:30:04.986Z,100290.00
2019-05-10T16:32:37.241Z,100294.00
2019-05-10T16:35:12.871Z,100291.00
2019-05-10T16:37:42.477Z,100294.00
2019-05-10T16:40:13.396Z,100300.00
2019-05-10T16:42:45.345Z,100293.00
2019-05-10T16:45:27.847Z,100294.00
2019-05-10T16:47:59.949Z,100296.00
2019-05-10T16:50:34.036Z,100290.00
2019-05-10T16:53:06.151Z,100294.00
2019-05-10T16:55:40.777Z,100296.00
2019-05-10T16:58:15.352Z,100300.00
2019-05-10T17:00:46.092Z,100300.00
2019-05-10T17:03:18.474Z,100287.00
2019-05-10T17:05:53.718Z,100288.00
2019-05-10T17:08:21.438Z,100287.00
2019-05-10T17:10:52.315Z,100294.00
2019-05-10T17:13:23.455Z,100288.00
2019-05-10T17:15:54.593Z,100288.00
2019-05-10T17:18:25.299Z,100290.00
2019-05-10T17:21:05.600Z,100293.00
2019-05-10T17:23:36.285Z,100286.00
2019-05-10T17:26:07.046Z,100292.00
2019-05-10T17:28:37.681Z,100289.00
2019-05-10T17:31:09.715Z,100302.00
2019-05-10T17:33:42.648Z,100305.00
2019-05-10T17:36:14.549Z,100290.00
2019-05-10T17:38:47.295Z,100303.00
2019-05-10T17:41:19.518Z,100294.00
2019-05-10T17:43:50.919Z,100287.00
2019-05-10T17:46:21.721Z,100290.00
2019-05-10T17:48:52.102Z,100288.00
2019-05-10T17:51:22.870Z,100280.00
2019-05-10T17:54:01.512Z,100284.00
2019-05-10T17:56:26.354Z,100288.00
2019-05-10T17:58:57.081Z,100286.00
2019-05-10T18:01:27.577Z,100282.00
2019-05-10T18:03:57.954Z,100296.00
2019-05-10T18:06:28.303Z,100280.00
2019-05-10T18:08:58.732Z,100286.00
2019-05-10T18:11:31.544Z,100288.00
2019-05-10T18:14:01.865Z,100286.00
2019-05-10T18:16:32.324Z,100287.00
2019-05-10T18:19:02.722Z,100292.00
2019-05-10T18:21:33.075Z,100296.00
2019-05-10T18:24:03.526Z,100298.00
2019-05-10T18:26:39.285Z,100294.00
2019-05-10T18:29:06.025Z,100297.00
2019-05-10T18:31:36.567Z,100296.00
2019-05-10T18:34:07.393Z,100293.00
2019-05-10T18:36:51.148Z,100297.00
2019-05-10T18:39:15.707Z,100307.00
2019-05-10T18:41:46.591Z,100304.00
2019-05-10T18:44:16.036Z,100310.00
2019-05-10T18:46:46.595Z,100309.00
2019-05-10T18:49:17.057Z,100312.00
2019-05-10T18:51:47.794Z,100314.00
2019-05-10T18:54:18.252Z,100318.00
2019-05-10T18:56:48.656Z,100318.00
2019-05-10T18:59:19.346Z,100332.00
2019-05-10T19:01:50.060Z,100326.00
2019-05-10T19:04:27.973Z,100314.00
2019-05-10T19:07:09.240Z,100321.00
2019-05-10T19:09:30.814Z,100316.00
2019-05-10T19:12:01.286Z,100321.00
2019-05-10T19:14:31.743Z,100320.00
2019-05-10T19:17:03.761Z,100323.00
2019-05-10T19:19:37.443Z,100323.00
2019-05-10T19:22:08.852Z,100325.00
2019-05-10T19:24:39.193Z,100335.00
2019-05-10T19:27:09.625Z,100336.00
2019-05-10T19:29:45.835Z,100335.00
2019-05-10T19:32:18.315Z,100355.00
2019-05-10T19:34:48.361Z,100342.00
2019-05-10T19:37:29.698Z,100347.00
2019-05-10T19:39:48.562Z,100355.00
2019-05-10T19:42:22.535Z,100349.00
2019-05-10T19:44:52.931Z,100353.00
2019-05-10T19:47:23.996Z,100356.00
2019-05-10T19:49:55.094Z,100369.00
2019-05-10T19:52:27.801Z,100374.00
2019-05-10T19:54:58.466Z,100385.00
2019-05-10T19:57:28.922Z,100390.00
2019-05-10T19:59:59.361Z,100401.00
2019-05-10T20:02:29.706Z,100399.00
2019-05-10T20:05:00.229Z,100409.00
2019-05-10T20:07:44.553Z,100408.00
2019-05-10T20:10:07.213Z,100412.00
2019-05-10T20:12:36.134Z,100416.00
2019-05-10T20:15:12.760Z,100412.00
2019-05-10T20:17:43.829Z,100406.00
2019-05-10T20:20:14.389Z,100414.00
2019-05-10T20:22:45.120Z,100405.00
2019-05-10T20:25:15.552Z,100396.00
2019-05-10T20:27:46.201Z,100399.00
2019-05-10T20:30:16.929Z,100390.00
2019-05-10T20:32:47.698Z,100386.00
2019-05-10T20:35:30.450Z,100389.00
2019-05-10T20:38:02.685Z,100384.00
2019-05-10T20:40:36.950Z,100395.00
2019-05-10T20:43:05.804Z,100394.00
2019-05-10T20:45:36.530Z,100396.00
2019-05-10T20:48:07.055Z,100394.00
2019-05-10T20:50:37.435Z,100392.00
2019-05-10T20:53:08.221Z,100382.00
2019-05-10T20:55:38.559Z,100385.00
2019-05-10T20:58:09.973Z,100385.00
2019-05-10T21:00:40.394Z,100397.00
2019-05-10T21:03:11.015Z,100396.00
2019-05-10T21:05:41.387Z,100400.00
2019-05-10T21:08:16.986Z,100382.00
2019-05-10T21:10:44.206Z,100390.00
2019-05-10T21:13:14.762Z,100387.00
2019-05-10T21:15:45.451Z,100390.00
2019-05-10T21:18:15.823Z,100394.00
2019-05-10T21:20:46.228Z,100389.00
2019-05-10T21:23:16.830Z,100394.00
2019-05-10T21:25:47.455Z,100389.00
2019-05-10T21:28:18.189Z,100391.00
2019-05-10T21:30:53.273Z,100389.00
2019-05-10T21:33:22.094Z,100393.00
2019-05-10T21:35:55.101Z,100390.00
2019-05-10T21:38:42.996Z,100382.00
2019-05-10T21:41:13.528Z,100392.00
2019-05-10T21:43:44.335Z,100404.00
2019-05-10T21:46:15.262Z,100398.00
2019-05-10T21:48:46.136Z,100394.00
2019-05-10T21:51:16.844Z,100382.00
2019-05-10T21:53:49.989Z,100382.00
2019-05-10T21:56:20.395Z,100389.00
2019-05-10T21:58:50.924Z,100384.00
2019-05-10T22:01:21.500Z,100387.00
2019-05-10T22:03:52.209Z,100385.00
2019-05-10T22:06:23.207Z,100377.00
2019-05-10T22:08:59.785Z,100379.00
2019-05-10T22:11:31.188Z,100379.00
2019-05-10T22:14:01.880Z,100384.00
2019-05-10T22:16:32.859Z,100388.00
2019-05-10T22:19:03.589Z,100388.00
2019-05-10T22:21:34.239Z,100386.00
2019-05-10T22:24:04.897Z,100379.00
2019-05-10T22:26:35.542Z,100378.00
2019-05-10T22:29:07.075Z,100376.00
2019-05-10T22:31:37.982Z,100374.00
2019-05-10T22:34:08.410Z,100366.00
2019-05-10T22:36:38.847Z,100369.00
2019-05-10T22:39:09.287Z,100366.00
2019-05-10T22:41:40.018Z,100372.00
2019-05-10T22:44:19.967Z,100375.00
2019-05-10T22:46:50.691Z,100371.00
2019-05-10T22:49:21.472Z,100372.00
2019-05-10T22:51:52.502Z,100374.00
2019-05-10T22:54:23.206Z,100376.00
2019-05-10T22:56:53.593Z,100378.00
2019-05-10T22:59:24.058Z,100372.00
2019-05-10T23:01:54.639Z,100364.00
2019-05-10T23:04:24.969Z,100364.00
2019-05-10T23:06:55.652Z,100372.00
2019-05-10T23:09:26.252Z,100371.00
2019-05-10T23:12:06.937Z,100370.00
2019-05-10T23:14:37.280Z,100371.00
2019-05-10T23:17:07.599Z,100368.00
2019-05-10T23:19:38.197Z,100360.00
2019-05-10T23:22:08.541Z,100354.00
2019-05-10T23:24:39.852Z,100351.00
2019-05-10T23:27:10.538Z,100351.00
2019-05-10T23:29:40.917Z,100339.00
2019-05-10T23:32:11.267Z,100351.00
2019-05-10T23:34:41.591Z,100346.00
2019-05-10T23:37:13.927Z,100339.00
2019-05-10T23:39:44.660Z,100332.00
2019-05-10T23:42:17.478Z,100336.00
2019-05-10T23:44:47.238Z,100336.00
2019-05-10T23:47:18.281Z,100343.00
2019-05-10T23:49:49.122Z,100338.00
2019-05-10T23:52:19.471Z,100335.00
2019-05-10T23:54:49.867Z,100336.00
2019-05-10T23:57:20.704Z,100338.00
2019-05-10T23:59:51.329Z,100345.00
